Time;durP1;ratioP1;P1;durP2;ratioP2;P2;SDS_P1;SDS_P2;PMS_P1;PMS_P2;Temp;Humidity;BMP_temperature;BMP_pressure;BME280_temperature;BME280_humidity;BME280_pressure;Samples;Min_cycle;Max_cycle;Signal;HPM_P1;HPM_P2
2024/02/23 00:01:26;;;;;;;0.20;0.20;;;;;;;7.80;55.40;100885.63;4916493;29;20031;-80
2024/02/23 00:03:52;;;;;;;0.20;0.20;;;;;;;7.91;55.72;100914.44;4917238;29;20107;-80
2024/02/23 00:06:18;;;;;;;0.20;0.20;;;;;;;7.85;55.70;100904.31;4916099;29;20032;-80
2024/02/23 00:08:43;;;;;;;0.20;0.20;;;;;;;7.93;55.79;100916.97;4932178;29;20056;-80
2024/02/23 00:11:09;;;;;;;0.10;0.10;;;;;;;7.92;55.70;100915.28;4916699;29;20032;-80
2024/02/23 00:13:35;;;;;;;0.20;0.20;;;;;;;7.88;55.93;100917.13;4931846;29;20502;-80
2024/02/23 00:16:00;;;;;;;0.20;0.20;;;;;;;7.80;56.02;100905.38;4916185;29;20071;-80
2024/02/23 00:18:26;;;;;;;0.20;0.20;;;;;;;7.73;56.27;100897.84;4917371;29;20060;-80
2024/02/23 00:20:51;;;;;;;0.20;0.20;;;;;;;7.85;55.96;100919.78;4915879;29;20028;-80
2024/02/23 00:23:19;;;;;;;0.20;0.20;;;;;;;7.83;55.73;100900.97;4932027;29;20032;-80
2024/02/23 00:25:44;;;;;;;0.20;0.20;;;;;;;7.87;56.28;100917.19;4931138;29;20039;-80
2024/02/23 00:28:10;;;;;;;0.20;0.20;;;;;;;7.87;56.06;100920.59;4915692;29;20036;-80
2024/02/23 00:30:35;;;;;;;0.20;0.20;;;;;;;7.88;56.58;100913.72;4931746;29;20036;-80
2024/02/23 00:33:01;;;;;;;0.20;0.20;;;;;;;7.92;56.18;100912.69;4915860;29;20075;-80
2024/02/23 00:35:26;;;;;;;0.20;0.20;;;;;;;7.87;56.32;100909.44;4915926;29;20407;-80
2024/02/23 00:37:52;;;;;;;0.20;0.20;;;;;;;7.86;56.45;100900.00;4915544;29;20549;-80
2024/02/23 00:40:18;;;;;;;0.20;0.20;;;;;;;7.87;56.55;100912.88;4915536;29;20035;-80
2024/02/23 00:42:43;;;;;;;0.20;0.20;;;;;;;7.73;56.73;100890.13;4915474;29;20035;-80
2024/02/23 00:45:09;;;;;;;0.20;0.20;;;;;;;7.86;56.77;100910.31;4915930;29;20129;-80
2024/02/23 00:47:35;;;;;;;0.20;0.20;;;;;;;7.85;56.51;100908.63;4915633;29;20036;-80
2024/02/23 00:50:01;;;;;;;0.20;0.20;;;;;;;7.96;56.61;100927.16;4931405;29;20046;-80
2024/02/23 00:52:27;;;;;;;0.20;0.20;;;;;;;7.87;56.55;100917.19;4915925;29;20414;-80
2024/02/23 00:54:52;;;;;;;0.20;0.20;;;;;;;7.93;56.31;100927.25;4915291;29;20112;-80
2024/02/23 00:57:21;;;;;;;0.20;0.20;;;;;;;7.86;56.72;100910.31;4930721;29;20066;-80
2024/02/23 00:59:47;;;;;;;0.20;0.20;;;;;;;7.67;56.40;100885.19;4900062;29;20525;-80
2024/02/23 01:02:12;;;;;;;0.20;0.20;;;;;;;7.82;56.61;100925.03;4916861;29;20087;-80
2024/02/23 01:04:38;;;;;;;0.20;0.20;;;;;;;7.73;56.46;100918.44;4915403;29;20636;-80
2024/02/23 01:07:03;;;;;;;0.20;0.20;;;;;;;7.80;56.79;100918.25;4915304;29;20028;-80
2024/02/23 01:09:29;;;;;;;0.17;0.17;;;;;;;7.63;57.13;100906.78;4915333;29;20028;-80
2024/02/23 01:11:55;;;;;;;0.20;0.20;;;;;;;7.57;57.26;100891.53;4930577;29;20035;-80
2024/02/23 01:14:20;;;;;;;0.20;0.20;;;;;;;7.65;57.07;100897.25;4931047;29;20032;-80
2024/02/23 01:16:46;;;;;;;0.20;0.20;;;;;;;7.70;57.10;100900.53;4915239;29;20518;-80
2024/02/23 01:19:11;;;;;;;0.20;0.20;;;;;;;7.68;57.24;100897.19;4916296;29;20032;-80
2024/02/23 01:21:37;;;;;;;0.20;0.20;;;;;;;7.54;57.42;100883.88;4930940;29;20379;-80
2024/02/23 01:24:04;;;;;;;0.20;0.20;;;;;;;7.59;57.87;100897.47;4931055;29;20036;-80
2024/02/23 01:26:29;;;;;;;0.20;0.20;;;;;;;7.58;57.73;100890.66;4930261;29;20028;-80
2024/02/23 01:28:55;;;;;;;0.10;0.10;;;;;;;7.64;57.36;100895.56;4915843;29;20028;-80
2024/02/23 01:31:20;;;;;;;0.20;0.20;;;;;;;7.53;57.58;100876.22;4915775;29;20024;-80
2024/02/23 01:33:47;;;;;;;0.20;0.20;;;;;;;7.64;57.81;100902.47;4914542;29;20032;-80
2024/02/23 01:36:12;;;;;;;0.20;0.20;;;;;;;7.55;57.81;100879.59;4914568;29;20487;-80
2024/02/23 01:38:38;;;;;;;0.20;0.20;;;;;;;7.70;58.04;100897.97;4914345;29;20059;-80
2024/02/23 01:41:04;;;;;;;0.20;0.20;;;;;;;7.66;58.06;100883.47;4930225;29;20025;-80
2024/02/23 01:43:29;;;;;;;0.20;0.20;;;;;;;7.70;57.55;100900.53;4914603;29;20028;-80
2024/02/23 01:45:55;;;;;;;0.10;0.10;;;;;;;7.62;57.32;100875.94;4914516;29;20430;-80
2024/02/23 01:48:20;;;;;;;0.20;0.20;;;;;;;7.70;57.64;100873.94;4930432;29;20414;-80
2024/02/23 01:50:46;;;;;;;0.20;0.20;;;;;;;7.64;57.44;100854.38;4914567;29;20414;-80
2024/02/23 01:53:12;;;;;;;0.20;0.20;;;;;;;7.61;57.83;100864.78;4914508;29;20410;-80
2024/02/23 01:55:40;;;;;;;0.20;0.20;;;;;;;7.67;57.93;100858.56;4914143;29;20031;-80
2024/02/23 01:58:06;;;;;;;0.20;0.20;;;;;;;7.69;58.20;100880.00;4914100;29;20031;-80
2024/02/23 02:00:31;;;;;;;0.20;0.20;;;;;;;7.63;58.81;100869.88;4914109;29;20420;-80
2024/02/23 02:02:57;;;;;;;0.20;0.20;;;;;;;7.62;58.56;100870.78;4929801;29;20035;-80
2024/02/23 02:05:23;;;;;;;0.20;0.20;;;;;;;7.56;58.70;100861.50;4915420;29;20506;-80
2024/02/23 02:07:53;;;;;;;0.17;0.17;;;;;;;7.64;58.36;100877.53;4914008;29;20582;-80
2024/02/23 02:10:19;;;;;;;0.20;0.20;;;;;;;7.69;58.24;100872.25;4913952;29;20032;-80
2024/02/23 02:12:45;;;;;;;0.20;0.20;;;;;;;7.60;57.97;100845.09;4929671;29;20415;-80
2024/02/23 02:15:10;;;;;;;0.20;0.20;;;;;;;7.79;57.84;100867.66;4929599;29;20514;-80
2024/02/23 02:17:36;;;;;;;0.20;0.20;;;;;;;7.70;58.12;100868.78;4913997;29;20040;-79
2024/02/23 02:20:05;;;;;;;0.20;0.20;;;;;;;7.58;58.29;100849.44;4913508;29;20039;-80
2024/02/23 02:22:34;;;;;;;0.20;0.20;;;;;;;7.57;58.88;100855.50;4914024;29;20483;-80
2024/02/23 02:24:59;;;;;;;0.20;0.20;;;;;;;7.67;58.53;100864.59;4913857;29;20121;-80
2024/02/23 02:27:25;;;;;;;0.20;0.20;;;;;;;7.65;58.30;100853.47;4913631;29;20032;-80
2024/02/23 02:29:51;;;;;;;0.20;0.20;;;;;;;7.64;58.66;100863.84;4913826;29;20036;-80
2024/02/23 02:32:17;;;;;;;0.20;0.20;;;;;;;7.56;58.58;100858.09;4913724;29;20035;-80
2024/02/23 02:34:42;;;;;;;0.20;0.20;;;;;;;7.62;57.93;100876.75;4929325;29;20035;-80
2024/02/23 02:37:08;;;;;;;0.20;0.20;;;;;;;7.24;58.25;100853.97;4913545;29;20450;-80
2024/02/23 02:39:34;;;;;;;0.20;0.20;;;;;;;7.22;58.80;100866.91;4897586;29;20416;-79
2024/02/23 02:41:59;;;;;;;0.20;0.20;;;;;;;7.21;58.69;100879.81;4914766;29;20079;-80
2024/02/23 02:44:26;;;;;;;0.20;0.20;;;;;;;7.14;59.19;100880.00;4897841;29;20410;-79
2024/02/23 02:46:52;;;;;;;0.20;0.20;;;;;;;7.08;58.99;100858.75;4913532;29;20056;-80
2024/02/23 02:49:17;;;;;;;0.20;0.20;;;;;;;7.26;58.58;100877.94;4913480;29;20086;-80
2024/02/23 02:51:43;;;;;;;0.20;0.20;;;;;;;7.22;58.84;100876.34;4913465;29;20063;-80
2024/02/23 02:54:08;;;;;;;0.15;0.15;;;;;;;7.22;58.82;100868.63;4913071;29;20039;-79
2024/02/23 02:56:34;;;;;;;0.20;0.20;;;;;;;7.07;58.94;100857.91;4913548;29;20032;-80
2024/02/23 02:58:59;;;;;;;0.20;0.20;;;;;;;6.98;59.27;100840.22;4929553;29;20040;-79
2024/02/23 03:01:26;;;;;;;0.20;0.20;;;;;;;6.95;59.05;100837.72;4913665;29;20406;-79
2024/02/23 03:03:51;;;;;;;0.20;0.20;;;;;;;7.22;58.60;100876.34;4914499;29;20028;-80
2024/02/23 03:06:17;;;;;;;0.20;0.20;;;;;;;7.06;59.23;100858.81;4914190;29;20924;-80
2024/02/23 03:08:42;;;;;;;0.20;0.20;;;;;;;7.03;59.25;100858.91;4913158;29;20056;-79
2024/02/23 03:11:08;;;;;;;0.20;0.20;;;;;;;6.89;60.70;100866.22;4913110;29;20036;-79
2024/02/23 03:13:33;;;;;;;0.20;0.20;;;;;;;6.69;60.27;100825.66;4913157;29;20416;-79
2024/02/23 03:16:00;;;;;;;0.10;0.10;;;;;;;7.00;59.82;100874.44;4912945;29;20521;-79
2024/02/23 03:18:27;;;;;;;0.20;0.20;;;;;;;7.02;60.45;100866.66;4913327;29;20111;-79
2024/02/23 03:20:53;;;;;;;0.20;0.20;;;;;;;7.03;60.59;100868.34;4913211;29;20059;-80
2024/02/23 03:23:18;;;;;;;0.20;0.20;;;;;;;7.04;60.43;100876.03;4912919;29;20033;-79
2024/02/23 03:25:44;;;;;;;0.20;0.20;;;;;;;7.04;60.25;100888.03;4913171;29;20036;-80
2024/02/23 03:28:09;;;;;;;0.20;0.20;;;;;;;6.91;60.80;100879.84;4897406;29;20028;-79
2024/02/23 03:30:35;;;;;;;0.10;0.10;;;;;;;6.76;60.70;100849.44;4913434;29;20035;-80
2024/02/23 03:33:00;;;;;;;0.20;0.20;;;;;;;6.93;60.36;100870.34;4917001;29;20028;-79
2024/02/23 03:35:26;;;;;;;0.20;0.20;;;;;;;6.80;60.57;100853.63;4916961;29;20047;-79
2024/02/23 03:37:51;;;;;;;0.20;0.20;;;;;;;6.80;60.63;100853.63;4916210;29;20056;-79
2024/02/23 03:40:19;;;;;;;0.20;0.20;;;;;;;6.98;60.52;100873.66;4918094;29;20035;-80
2024/02/23 03:42:44;;;;;;;0.20;0.20;;;;;;;6.98;60.29;100883.94;4901274;29;20043;-80
2024/02/23 03:45:10;;;;;;;0.20;0.20;;;;;;;6.98;60.02;100883.94;4916703;29;20059;-79
2024/02/23 03:47:35;;;;;;;0.20;0.20;;;;;;;6.81;60.41;100871.56;4916809;29;20032;-80
2024/02/23 03:50:01;;;;;;;0.20;0.20;;;;;;;6.81;60.55;100878.44;4916663;29;20078;-79
2024/02/23 03:52:27;;;;;;;0.20;0.20;;;;;;;6.67;60.81;100862.56;4917015;29;20036;-79
2024/02/23 03:54:53;;;;;;;0.20;0.20;;;;;;;6.63;61.08;100878.97;4916587;29;20107;-79
2024/02/23 03:57:19;;;;;;;0.20;0.20;;;;;;;6.67;61.12;100867.69;4916728;29;20953;-80
2024/02/23 03:59:54;;;;;;;0.20;0.20;;;;;;;7.00;61.16;100892.44;4932062;29;20031;-81
2024/02/23 04:02:20;;;;;;;0.10;0.10;;;;;;;7.11;60.25;100867.22;4916227;29;20024;-81
2024/02/23 04:04:46;;;;;;;0.20;0.20;;;;;;;7.03;59.84;100876.91;4916034;29;20028;-80
2024/02/23 04:07:11;;;;;;;0.20;0.20;;;;;;;6.88;60.41;100872.22;4916175;29;20025;-80
2024/02/23 04:09:37;;;;;;;0.20;0.20;;;;;;;6.74;60.38;100858.94;4916650;29;20028;-80
2024/02/23 04:12:03;;;;;;;0.20;0.20;;;;;;;6.85;60.39;100887.75;4916147;29;20051;-80
2024/02/23 04:14:28;;;;;;;0.20;0.20;;;;;;;6.74;60.46;100874.34;4915966;29;20038;-80
2024/02/23 04:16:54;;;;;;;0.10;0.10;;;;;;;6.83;60.08;100890.38;4931773;29;20028;-80
2024/02/23 04:19:19;;;;;;;0.20;0.20;;;;;;;6.72;60.71;100876.13;4915982;29;20084;-80
2024/02/23 04:21:45;;;;;;;0.20;0.20;;;;;;;6.70;60.65;100888.19;4916093;29;20060;-80
2024/02/23 04:24:10;;;;;;;0.20;0.20;;;;;;;6.63;60.75;100891.81;4915871;29;20035;-79
2024/02/23 04:26:36;;;;;;;0.20;0.20;;;;;;;6.53;61.06;100902.38;4931714;29;20036;-79
2024/02/23 04:29:01;;;;;;;0.20;0.20;;;;;;;6.42;61.51;100898.41;4916029;29;20028;-79
2024/02/23 04:31:27;;;;;;;0.10;0.10;;;;;;;6.31;61.63;100893.56;4916168;29;20032;-80
2024/02/23 04:33:52;;;;;;;0.20;0.20;;;;;;;6.24;61.86;100892.88;4914963;29;20032;-79
2024/02/23 04:36:21;;;;;;;0.10;0.10;;;;;;;6.25;62.12;100906.56;4915701;29;20036;-79
2024/02/23 04:38:47;;;;;;;0.10;0.10;;;;;;;6.08;61.92;100868.47;4914894;29;20056;-79
2024/02/23 04:41:12;;;;;;;0.10;0.10;;;;;;;6.16;61.90;100887.09;4916677;29;20031;-80
2024/02/23 04:43:38;;;;;;;0.20;0.20;;;;;;;6.04;62.43;100893.41;4931248;29;20088;-80
2024/02/23 04:46:03;;;;;;;0.10;0.10;;;;;;;6.01;62.69;100896.06;4916228;29;20040;-80
2024/02/23 04:48:30;;;;;;;0.20;0.20;;;;;;;6.11;62.36;100898.38;4914621;29;20028;-80
2024/02/23 04:50:57;;;;;;;0.20;0.20;;;;;;;6.15;62.36;100890.56;4915312;29;20023;-80
2024/02/23 04:53:22;;;;;;;0.20;0.20;;;;;;;5.86;62.33;100852.75;4915363;29;20494;-80
2024/02/23 04:55:48;;;;;;;0.20;0.20;;;;;;;6.00;62.65;100883.25;4916349;29;20079;-79
2024/02/23 04:58:13;;;;;;;0.20;0.20;;;;;;;6.00;62.66;100891.81;4916426;29;20032;-80
2024/02/23 05:00:39;;;;;;;0.20;0.20;;;;;;;5.98;62.94;100908.13;4916227;29;20427;-79
2024/02/23 05:03:06;;;;;;;0.20;0.20;;;;;;;5.82;63.29;100902.50;4914535;29;20099;-80
2024/02/23 05:05:31;;;;;;;0.15;0.15;;;;;;;5.75;63.78;100900.97;4915271;29;20087;-80
2024/02/23 05:07:57;;;;;;;0.20;0.20;;;;;;;5.82;63.53;100902.50;4915228;29;20447;-80
2024/02/23 05:10:23;;;;;;;0.20;0.20;;;;;;;5.62;64.12;100879.06;4921381;29;20039;-80
2024/02/23 05:12:49;;;;;;;0.20;0.20;;;;;;;5.86;63.50;100906.66;4930603;29;20027;-81
2024/02/23 05:15:14;;;;;;;0.20;0.20;;;;;;;5.61;63.99;100885.91;4915974;29;20028;-80
2024/02/23 05:17:40;;;;;;;0.20;0.20;;;;;;;5.78;63.91;100907.75;4924936;29;20032;-79
2024/02/23 05:20:10;;;;;;;0.10;0.10;;;;;;;5.67;63.60;100897.75;4929576;29;20486;-82
2024/02/23 05:22:38;;;;;;;0.20;0.20;;;;;;;5.70;63.82;100913.06;4920861;29;20035;-81
2024/02/23 05:25:07;;;;;;;0.20;0.20;;;;;;;5.72;63.73;100913.88;4942907;29;20035;-86
2024/02/23 05:27:32;;;;;;;0.20;0.20;;;;;;;5.63;63.99;100893.56;4935595;29;20031;-84
2024/02/23 05:29:58;;;;;;;0.10;0.10;;;;;;;5.74;63.61;100904.41;4917551;29;20095;-86
2024/02/23 05:32:24;;;;;;;0.20;0.20;;;;;;;5.74;64.10;100914.69;4916315;29;20032;-90
2024/02/23 05:34:52;;;;;;;0.20;0.20;;;;;;;5.67;64.36;100903.72;4917398;29;20418;-84
2024/02/23 05:37:18;;;;;;;0.10;0.10;;;;;;;5.73;64.61;100905.31;4934422;29;20533;-92
2024/02/23 05:39:45;;;;;;;0.20;0.20;;;;;;;5.69;64.31;100912.22;4932946;29;21107;-82
2024/02/23 05:42:12;;;;;;;0.20;0.20;;;;;;;5.79;64.78;100925.66;4933333;29;20091;-89
2024/02/23 05:44:37;;;;;;;0.20;0.20;;;;;;;5.82;64.47;100927.34;4917294;29;20114;-86
2024/02/23 05:47:03;;;;;;;0.20;0.20;;;;;;;5.73;64.85;100928.41;4917821;29;20458;-87
2024/02/23 05:49:29;;;;;;;0.20;0.20;;;;;;;5.72;64.14;100922.44;4930235;29;20036;-81
2024/02/23 05:51:55;;;;;;;0.20;0.20;;;;;;;5.68;64.09;100923.38;4945718;29;20118;-88
2024/02/23 05:54:20;;;;;;;0.20;0.20;;;;;;;5.71;63.52;100932.75;4915431;29;20031;-89
2024/02/23 05:56:46;;;;;;;0.20;0.20;;;;;;;5.68;63.95;100927.66;4916861;29;20450;-89
2024/02/23 05:59:11;;;;;;;0.10;0.10;;;;;;;5.76;63.51;100929.16;4897633;29;20040;-91
2024/02/23 06:01:37;;;;;;;0.20;0.20;;;;;;;5.67;64.13;100931.09;4925341;29;20489;-87
2024/02/23 06:04:03;;;;;;;0.20;0.20;;;;;;;5.62;63.59;100897.03;4927561;29;20039;-90
2024/02/23 06:06:29;;;;;;;0.20;0.20;;;;;;;5.71;63.90;100922.47;4948690;29;20035;-91
2024/02/23 06:08:54;;;;;;;0.20;0.20;;;;;;;5.76;63.65;100923.19;4935589;29;20474;-89
2024/02/23 06:11:20;;;;;;;0.20;0.20;;;;;;;5.78;63.56;100920.56;4938117;29;20115;-92
2024/02/23 06:13:45;;;;;;;0.20;0.20;;;;;;;5.87;63.86;100921.19;4940923;29;20474;-89
2024/02/23 06:16:11;;;;;;;0.20;0.20;;;;;;;5.89;63.88;100929.69;4918491;29;20038;-90
2024/02/23 06:18:40;;;;;;;0.20;0.20;;;;;;;5.93;63.68;100925.38;4933015;29;20035;-87
2024/02/23 06:21:15;;;;;;;0.20;0.20;;;;;;;6.04;64.10;100924.22;4932354;29;20059;-86
2024/02/23 06:23:42;;;;;;;0.20;0.20;;;;;;;6.14;63.50;100932.53;4916198;29;20032;-92
2024/02/23 06:26:07;;;;;;;0.20;0.20;;;;;;;6.18;63.67;100931.56;4928396;29;20035;-90
2024/02/23 06:28:33;;;;;;;0.20;0.20;;;;;;;6.30;63.79;100928.69;4916798;29;20102;-85
2024/02/23 06:30:58;;;;;;;0.20;0.20;;;;;;;6.36;63.79;100930.25;4924230;29;20468;-93
2024/02/23 06:33:24;;;;;;;0.20;0.20;;;;;;;6.36;63.82;100925.09;4919708;29;20068;-92
2024/02/23 06:35:50;;;;;;;0.20;0.20;;;;;;;6.44;64.08;100933.47;4916309;29;20558;-87
2024/02/23 06:38:16;;;;;;;0.20;0.20;;;;;;;6.52;64.00;100936.66;4914350;29;20054;-90
2024/02/23 06:40:41;;;;;;;0.20;0.20;;;;;;;6.52;63.68;100936.66;4950295;29;20031;-92
2024/02/23 06:43:07;;;;;;;0.20;0.20;;;;;;;6.65;63.74;100939.72;4933641;29;20090;-89
2024/02/23 06:45:33;;;;;;;0.20;0.20;;;;;;;6.59;63.53;100921.94;4931388;29;20040;-83
2024/02/23 06:47:58;;;;;;;0.10;0.10;;;;;;;6.78;63.42;100942.78;4932658;29;20039;-87
2024/02/23 06:50:24;;;;;;;0.20;0.20;;;;;;;6.82;63.03;100939.28;4931551;29;20027;-86
2024/02/23 06:52:49;;;;;;;0.20;0.20;;;;;;;6.87;62.72;100934.81;4915661;29;20028;-87
2024/02/23 06:55:17;;;;;;;0.20;0.20;;;;;;;6.88;62.67;100928.78;4916093;29;20175;-91
2024/02/23 06:57:43;;;;;;;0.20;0.20;;;;;;;6.97;62.69;100941.38;4949949;29;20028;-89
2024/02/23 07:00:09;;;;;;;0.20;0.20;;;;;;;6.90;62.42;100929.63;4915684;29;20134;-87
2024/02/23 07:02:36;;;;;;;0.20;0.20;;;;;;;7.05;62.40;100947.16;4931303;29;20040;-90
2024/02/23 07:05:04;;;;;;;0.20;0.20;;;;;;;7.11;62.06;100931.56;4932322;29;20517;-85
2024/02/23 07:07:30;;;;;;;0.20;0.20;;;;;;;7.14;61.91;100944.31;4916189;29;20038;-84
2024/02/23 07:09:56;;;;;;;0.20;0.20;;;;;;;7.09;62.08;100922.22;4914120;29;20062;-84
2024/02/23 07:12:22;;;;;;;0.20;0.20;;;;;;;7.21;62.58;100951.88;4938216;29;20510;-85
2024/02/23 07:14:48;;;;;;;0.20;0.20;;;;;;;7.35;62.39;100950.53;4915641;29;20511;-86
2024/02/23 07:17:17;;;;;;;0.20;0.20;;;;;;;7.46;62.40;100953.63;4930870;29;20079;-92
2024/02/23 07:19:42;;;;;;;0.20;0.20;;;;;;;7.51;62.36;100950.94;4897830;29;20030;-91
2024/02/23 07:22:08;;;;;;;0.20;0.20;;;;;;;7.58;62.42;100939.56;4928217;29;20110;-92
2024/02/23 07:24:33;;;;;;;0.20;0.20;;;;;;;7.76;61.90;100944.09;4928592;29;20036;-88
2024/02/23 07:26:59;;;;;;;0.20;0.20;;;;;;;7.82;61.59;100934.50;4912564;29;20063;-84
2024/02/23 07:29:24;;;;;;;0.20;0.20;;;;;;;8.04;61.40;100950.94;4911880;29;20041;-84
2024/02/23 07:31:50;;;;;;;0.20;0.20;;;;;;;8.07;61.71;100945.69;4913199;29;20048;-88
2024/02/23 07:34:15;;;;;;;0.20;0.20;;;;;;;8.07;61.16;100935.41;4928102;29;20032;-86
2024/02/23 07:36:42;;;;;;;0.20;0.20;;;;;;;8.16;60.81;100934.22;4932260;29;20491;-87
2024/02/23 07:39:08;;;;;;;0.20;0.20;;;;;;;8.20;60.91;100951.28;4914901;29;20142;-88
2024/02/23 07:41:33;;;;;;;0.20;0.20;;;;;;;8.22;60.83;100952.91;4930153;29;20123;-94
2024/02/23 07:44:00;;;;;;;0.20;0.20;;;;;;;8.24;60.71;100940.78;4928295;29;20482;-91
2024/02/23 07:46:25;;;;;;;0.20;0.20;;;;;;;8.36;60.55;100942.16;4944042;29;20048;-92
2024/02/23 07:48:51;;;;;;;0.20;0.20;;;;;;;8.33;60.26;100911.28;4930719;29;20526;-92
2024/02/23 07:51:18;;;;;;;0.20;0.20;;;;;;;8.57;59.43;100943.97;4939187;29;20036;-91
2024/02/23 07:53:44;;;;;;;0.20;0.20;;;;;;;8.55;59.26;100929.44;4947101;29;20082;-90
2024/02/23 07:56:10;;;;;;;0.20;0.20;;;;;;;8.64;58.97;100936.84;4942993;29;20466;-87
2024/02/23 07:58:36;;;;;;;0.20;0.20;;;;;;;8.73;59.09;100944.25;4915660;29;20549;-95
2024/02/23 08:01:01;;;;;;;0.20;0.20;;;;;;;8.94;58.50;100949.53;4943411;29;20409;-89
2024/02/23 08:03:27;;;;;;;0.20;0.20;;;;;;;8.84;58.46;100939.53;4932303;29;20063;-85
2024/02/23 08:05:53;;;;;;;0.20;0.20;;;;;;;9.04;58.42;100961.19;4924745;29;20463;-90
2024/02/23 08:08:19;;;;;;;0.20;0.20;;;;;;;9.09;57.88;100954.97;4917395;29;20354;-88
2024/02/23 08:10:45;;;;;;;0.20;0.20;;;;;;;9.23;57.92;100956.19;4929181;29;20064;-91
2024/02/23 08:13:11;;;;;;;0.20;0.20;;;;;;;9.22;57.38;100950.19;4946953;29;20047;-83
2024/02/23 08:15:36;;;;;;;0.20;0.20;;;;;;;9.45;57.25;100944.16;4928560;29;20054;-89
2024/02/23 08:18:02;;;;;;;0.20;0.20;;;;;;;9.67;56.60;100957.06;4932015;29;20615;-91
2024/02/23 08:20:28;;;;;;;0.20;0.20;;;;;;;9.73;56.26;100951.63;4951495;29;20439;-85
2024/02/23 08:22:53;;;;;;;0.20;0.20;;;;;;;9.77;56.61;100961.78;4920936;29;20408;-90
2024/02/23 08:25:19;;;;;;;0.20;0.20;;;;;;;9.84;56.39;100952.06;4931006;29;20502;-86
2024/02/23 08:27:44;;;;;;;0.20;0.20;;;;;;;9.98;56.11;100961.81;4931550;29;20039;-89
2024/02/23 08:30:13;;;;;;;0.20;0.20;;;;;;;9.98;55.80;100959.22;4930550;29;20032;-88
2024/02/23 08:32:39;;;;;;;0.20;0.20;;;;;;;10.09;55.86;100951.03;4930581;29;20498;-87
2024/02/23 08:35:05;;;;;;;0.20;0.20;;;;;;;10.10;55.23;100955.28;4909264;29;20032;-89
2024/02/23 08:37:31;;;;;;;0.20;0.20;;;;;;;10.29;55.35;100966.59;4916646;29;20054;-89
2024/02/23 08:39:56;;;;;;;0.20;0.20;;;;;;;10.31;55.10;100952.69;4925154;29;20035;-84
2024/02/23 08:42:22;;;;;;;0.20;0.20;;;;;;;10.33;55.44;100962.97;4933281;29;20051;-84
2024/02/23 08:44:48;;;;;;;0.20;0.20;;;;;;;10.45;55.39;100953.84;4942918;29;20066;-87
2024/02/23 08:47:13;;;;;;;0.20;0.20;;;;;;;10.48;54.81;100951.97;4931435;29;20042;-92
2024/02/23 08:49:39;;;;;;;0.10;0.10;;;;;;;10.38;54.87;100923.97;4925485;29;20032;-84
2024/02/23 08:52:05;;;;;;;0.20;0.20;;;;;;;10.68;54.40;100950.25;4942753;29;20035;-87
2024/02/23 08:54:30;;;;;;;0.20;0.20;;;;;;;10.81;54.18;100953.97;4934106;29;20032;-81
2024/02/23 08:56:56;;;;;;;0.20;0.20;;;;;;;10.71;54.51;100916.47;4915798;29;20036;-87
2024/02/23 08:59:21;;;;;;;0.20;0.20;;;;;;;11.01;53.67;100956.53;4932485;29;20142;-88
2024/02/23 09:01:47;;;;;;;0.20;0.20;;;;;;;11.15;53.24;100959.31;4934409;29;20032;-89
2024/02/23 09:04:13;;;;;;;0.20;0.20;;;;;;;11.19;53.27;100955.66;4934067;29;20036;-90
2024/02/23 09:06:39;;;;;;;0.20;0.20;;;;;;;11.28;53.24;100956.97;4942754;29;20468;-86
2024/02/23 09:09:04;;;;;;;0.20;0.20;;;;;;;11.36;52.69;100967.00;4918555;29;20111;-88
2024/02/23 09:11:30;;;;;;;0.20;0.20;;;;;;;11.41;52.67;100957.28;4941218;29;20522;-90
2024/02/23 09:13:55;;;;;;;0.20;0.20;;;;;;;11.45;52.81;100962.22;4946394;29;20503;-89
2024/02/23 09:16:24;;;;;;;0.20;0.20;;;;;;;11.64;52.62;100959.59;4936587;29;20040;-90
2024/02/23 09:18:50;;;;;;;0.10;0.10;;;;;;;11.72;52.45;100954.91;4936415;29;20035;-86
2024/02/23 09:21:15;;;;;;;0.20;0.20;;;;;;;11.64;52.64;100925.91;4915619;29;20036;-87
2024/02/23 09:23:41;;;;;;;0.20;0.20;;;;;;;11.69;52.46;100913.56;4929875;29;20513;-88
2024/02/23 09:26:12;;;;;;;0.20;0.20;;;;;;;11.94;51.92;100930.53;4929728;29;20059;-89
2024/02/23 09:28:40;;;;;;;0.20;0.20;;;;;;;12.18;51.41;100942.25;4928733;29;20059;-89
2024/02/23 09:31:06;;;;;;;0.20;0.20;;;;;;;12.17;51.00;100935.41;4915919;29;20040;-90
2024/02/23 09:33:31;;;;;;;0.20;0.20;;;;;;;12.01;50.71;100908.59;4933170;29;20066;-85
2024/02/23 09:35:57;;;;;;;0.20;0.20;;;;;;;12.20;50.74;100919.69;4947331;29;20028;-92
2024/02/23 09:38:25;;;;;;;0.20;0.20;;;;;;;12.18;50.69;100905.94;4934480;29;20071;-90
2024/02/23 09:40:51;;;;;;;0.20;0.20;;;;;;;12.22;50.51;100928.25;4929006;29;20039;-89
2024/02/23 09:43:17;;;;;;;0.20;0.20;;;;;;;12.15;50.65;100915.66;4922740;29;20467;-90
2024/02/23 09:45:42;;;;;;;0.20;0.20;;;;;;;12.32;50.58;100923.41;4917957;29;20031;-93
2024/02/23 09:48:08;;;;;;;0.20;0.20;;;;;;;12.44;50.39;100927.13;4932500;29;20378;-89
2024/02/23 09:50:34;;;;;;;0.20;0.20;;;;;;;12.55;50.07;100924.81;4933711;29;20032;-84
2024/02/23 09:53:00;;;;;;;0.20;0.20;;;;;;;12.81;49.20;100916.50;4929815;29;20035;-90
2024/02/23 09:55:25;;;;;;;0.20;0.20;;;;;;;13.03;49.07;100912.72;4915445;29;20047;-93
2024/02/23 09:57:54;;;;;;;0.20;0.20;;;;;;;13.03;49.10;100907.53;4931956;29;20092;-88
2024/02/23 10:00:20;;;;;;;0.20;0.20;;;;;;;13.16;48.83;100911.13;4931913;29;20035;-85
2024/02/23 10:02:45;;;;;;;0.20;0.20;;;;;;;13.26;48.72;100907.13;4914628;29;20042;-90
2024/02/23 10:05:12;;;;;;;0.20;0.20;;;;;;;13.25;48.24;100881.25;4916402;29;20178;-85
2024/02/23 10:07:38;;;;;;;0.20;0.20;;;;;;;13.46;48.66;100893.84;4931535;29;20032;-87
2024/02/23 10:10:07;;;;;;;0.20;0.20;;;;;;;13.64;47.80;100899.78;4924173;29;20036;-90
2024/02/23 10:12:33;;;;;;;0.20;0.20;;;;;;;13.64;47.43;100896.34;4914534;29;20388;-88
2024/02/23 10:14:59;;;;;;;0.20;0.20;;;;;;;13.71;47.35;100882.06;4913862;29;20111;-88
2024/02/23 10:17:24;;;;;;;0.20;0.20;;;;;;;13.87;47.03;100887.25;4930289;29;20458;-86
2024/02/23 10:19:50;;;;;;;0.20;0.20;;;;;;;13.76;46.86;100865.28;4914577;29;20478;-86
2024/02/23 10:22:16;;;;;;;0.20;0.20;;;;;;;13.81;46.50;100878.00;4929882;29;20108;-86
2024/02/23 10:24:43;;;;;;;0.13;0.13;;;;;;;13.95;46.67;100885.84;4929271;29;20570;-85
2024/02/23 10:27:08;;;;;;;0.20;0.20;;;;;;;14.01;46.01;100866.44;4929610;29;20039;-91
2024/02/23 10:29:34;;;;;;;0.20;0.20;;;;;;;14.21;46.12;100870.44;4930337;29;20040;-83
2024/02/23 10:32:00;;;;;;;0.20;0.20;;;;;;;14.14;46.41;100861.34;4931302;29;20083;-91
2024/02/23 10:34:26;;;;;;;0.20;0.20;;;;;;;14.17;45.88;100874.19;4912852;29;20100;-87
2024/02/23 10:36:51;;;;;;;0.20;0.20;;;;;;;14.31;45.35;100875.00;4916767;29;20095;-86
2024/02/23 10:39:18;;;;;;;0.20;0.20;;;;;;;14.29;45.38;100855.22;4920923;29;20036;-86
2024/02/23 10:41:47;;;;;;;0.20;0.20;;;;;;;14.35;45.57;100870.44;4931351;29;20110;-84
2024/02/23 10:44:13;;;;;;;0.20;0.20;;;;;;;14.25;45.51;100853.72;4932039;29;20470;-87
2024/02/23 10:46:40;;;;;;;0.20;0.20;;;;;;;14.45;45.73;100868.97;4916854;29;20036;-89
2024/02/23 10:49:06;;;;;;;0.20;0.20;;;;;;;14.58;45.14;100863.88;4919828;29;20037;-89
2024/02/23 10:51:32;;;;;;;0.20;0.20;;;;;;;14.73;44.46;100862.06;4934742;29;20027;-87
2024/02/23 10:53:58;;;;;;;0.20;0.20;;;;;;;14.81;44.68;100854.63;4911940;29;20032;-89
2024/02/23 10:56:24;;;;;;;0.20;0.20;;;;;;;15.00;44.29;100855.13;4932352;29;20036;-87
2024/02/23 10:58:49;;;;;;;0.20;0.20;;;;;;;14.93;43.93;100827.78;4915174;29;20119;-89
2024/02/23 11:01:16;;;;;;;0.20;0.20;;;;;;;15.16;44.25;100840.19;4936644;29;20123;-89
2024/02/23 11:03:42;;;;;;;0.20;0.20;;;;;;;15.11;44.05;100831.84;4933771;29;20048;-91
2024/02/23 11:06:08;;;;;;;0.20;0.20;;;;;;;15.26;43.86;100824.81;4918603;29;20426;-82
2024/02/23 11:08:36;;;;;;;0.20;0.20;;;;;;;15.29;43.46;100835.03;4913745;29;20035;-87
2024/02/23 11:11:08;;;;;;;0.10;0.10;;;;;;;15.33;43.15;100825.22;4921386;29;20478;-90
2024/02/23 11:13:38;;;;;;;0.20;0.20;;;;;;;15.39;42.78;100830.03;4929986;29;20047;-87
2024/02/23 11:16:10;;;;;;;0.10;0.10;;;;;;;15.50;43.12;100822.34;4932737;29;20454;-91
2024/02/23 11:18:36;;;;;;;0.20;0.20;;;;;;;15.57;42.58;100820.19;4931982;29;20039;-90
2024/02/23 11:21:04;;;;;;;0.20;0.20;;;;;;;15.72;42.99;100821.78;4920135;29;20039;-93
2024/02/23 11:23:49;;;;;;;0.13;0.13;;;;;;;15.88;42.08;100817.19;4939886;29;20038;-92
2024/02/23 11:26:15;;;;;;;0.20;0.20;;;;;;;16.19;41.72;100818.53;4927468;29;20032;-87